Data for 07/26/2015

Time Sea-Level Adjusted Pressure Absolute Pressure Temperature Relative Humidity Dew Point   
(mb) (inHg) (mb) (inHg) (C) (F) (%) (C) (F)
00:05 1017 30.03 846 24.98 16.5 61.6 49 5.8 42.5
00:10 1017 30.03 846 24.98 16.2 61.1 51 6.1 43
00:15 1017 30.03 846 24.98 15.6 60.1 52 5.8 42.4
00:20 1017 30.03 846 24.98 15.5 59.8 51 5.4 41.7
00:25 1017 30.03 846 24.98 15.1 59.2 50 4.9 40.8
00:30 1017 30.03 846 24.98 15.4 59.7 47 4.3 39.7
00:35 1017 30.03 846 24.98 15.7 60.2 45 4 39.2
00:40 1017 30.03 846 24.98 16.1 61 43 3.6 38.6
00:45 1017 30.03 846 24.98 16.4 61.6 44 4.4 39.9
00:50 1017 30.03 846 24.98 16.2 61.1 47 4.9 40.9
00:55 1017 30.03 846 24.98 15.2 59.3 51 5.1 41.2
01:00 1017 30.03 846 24.98 15 58.9 49 4.4 40
01:05 1017 30.03 846 24.98 15.2 59.4 47 4.2 39.5
01:10 1017 30.03 846 24.98 16 60.9 44 3.8 38.8
01:15 1017 30.03 846 24.98 16.7 62 43 4.2 39.6
01:20 1017 30.03 846 24.98 16.7 62 44 4.5 40.1
01:25 1017 30.03 846 24.98 16.6 62 44 4.5 40.1
01:30 1017 30.03 846 24.98 16.5 61.7 47 5.2 41.3
01:35 1017 30.03 846 24.98 16.3 61.4 47 5.1 41.3
01:40 1017 30.03 847 25.01 15.9 60.6 47 4.8 40.6
01:45 1017 30.03 847 25.01 15.2 59.4 49 4.7 40.5
01:50 1017 30.03 847 25.01 15.1 59.3 50 4.8 40.6
01:55 1017 30.03 847 25.01 14.8 58.6 51 4.9 40.8
02:00 1017 30.03 847 25.01 14.9 58.9 49 4.4 39.9
02:05 1017 30.03 847 25.01 15.1 59.2 47 4.1 39.3
02:10 1017 30.03 847 25.01 15.4 59.6 46 4 39.1
02:15 1017 30.03 847 25.01 15.2 59.3 47 3.9 39.1
02:20 1017 30.03 847 25.01 15.2 59.3 48 4.3 39.7
02:25 1017 30.03 847 25.01 15.2 59.3 46 3.8 38.9
02:30 1017 30.03 847 25.01 15.2 59.4 46 3.6 38.5
02:35 1017 30.03 847 25.01 15 58.9 47 3.7 38.7
02:40 1018 30.06 847 25.01 14.6 58.3 47 3.6 38.6
02:45 1017 30.03 847 25.01 14.6 58.2 45 2.9 37.3
02:50 1018 30.06 847 25.01 15 59 45 3.1 37.6
02:55 1017 30.03 847 25.01 14.8 58.7 45 3.1 37.6
03:00 1017 30.03 847 25.01 14.7 58.4 44 2.7 36.9
03:05 1017 30.03 847 25.01 14.9 58.9 45 3.1 37.6
03:10 1017 30.03 847 25.01 14.8 58.6 45 3.1 37.6
03:15 1017 30.03 847 25.01 14.7 58.5 45 3.1 37.6
03:20 1017 30.03 847 25.01 14.8 58.6 48 4 39.2
03:25 1017 30.03 847 25.01 14.4 58 50 4.3 39.7
03:30 1017 30.03 847 25.01 14 57.3 51 4 39.2
03:35 1017 30.03 846 24.98 13.9 56.9 53 4.4 39.9
03:40 1017 30.03 846 24.98 13.4 56.1 54 4.3 39.8
03:45 1017 30.03 846 24.98 13.3 55.9 54 4.3 39.7
03:50 1017 30.03 846 24.98 13.4 56 54 4.3 39.8
03:55 1017 30.03 846 24.98 13.2 55.8 55 4.5 40.1
04:00 1017 30.03 846 24.98 13.1 55.5 57 4.7 40.5
04:05 1017 30.03 846 24.98 12.9 55.2 57 4.6 40.3
04:10 1017 30.03 846 24.98 13.1 55.6 56 4.6 40.3
04:15 1017 30.03 846 24.98 13 55.3 57 4.7 40.4
04:20 1017 30.03 846 24.98 13.1 55.6 56 4.5 40.1
04:25 1017 30.03 846 24.98 13.3 55.9 55 4.5 40.1
04:30 1017 30.03 846 24.98 13.3 56 55 4.5 40.1
04:35 1017 30.03 846 24.98 13.5 56.3 54 4.4 39.9
04:40 1017 30.03 846 24.98 13.4 56.2 54 4.4 39.9
04:45 1017 30.03 846 24.98 13.4 56.2 55 4.5 40.1
04:50 1017 30.03 846 24.98 13.4 56.1 55 4.6 40.2
04:55 1017 30.03 846 24.98 13.2 55.8 56 4.7 40.4
05:00 1017 30.03 846 24.98 13.1 55.6 56 4.6 40.3
05:05 1017 30.03 846 24.98 13.2 55.7 56 4.7 40.4
05:10 1017 30.03 846 24.98 13 55.4 56 4.5 40.1
05:15 1017 30.03 846 24.98 13 55.4 57 4.6 40.3
05:20 1017 30.03 847 25.01 13 55.4 57 4.7 40.4
05:25 1017 30.03 847 25.01 13.1 55.6 56 4.5 40.2
05:30 1017 30.03 847 25.01 13.1 55.7 55 4.4 39.9
05:35 1017 30.03 847 25.01 13.3 56 54 4.4 39.9
05:40 1017 30.03 847 25.01 13.3 56 55 4.6 40.2
05:45 1017 30.03 847 25.01 13.2 55.7 54 4.2 39.6
05:50 1017 30.03 847 25.01 13.3 55.9 54 4.2 39.5
05:55 1017 30.03 847 25.01 13.6 56.5 52 4.1 39.4
06:00 1017 30.03 847 25.01 13.8 56.9 53 4.4 40
06:05 1017 30.03 847 25.01 13.7 56.6 52 4.1 39.5
06:10 1017 30.03 847 25.01 13.9 57 52 4.2 39.6
06:15 1017 30.03 846 24.98 14.2 57.5 51 4.4 39.9
06:20 1017 30.03 846 24.98 14.5 58.1 51 4.7 40.5
06:25 1017 30.03 846 24.98 14.7 58.5 51 4.9 40.7
06:30 1017 30.03 846 24.98 14.8 58.7 51 4.9 40.9
06:35 1017 30.03 847 25.01 15 58.9 50 4.8 40.6
06:40 1017 30.03 847 25.01 15.3 59.5 49 4.8 40.6
06:45 1018 30.06 847 25.01 15.4 59.6 51 5.2 41.4
06:50 1017 30.03 847 25.01 15.3 59.5 49 4.7 40.5
06:55 1018 30.06 847 25.01 15.3 59.5 49 4.8 40.6
07:00 1017 30.03 847 25.01 14.9 58.9 54 5.7 42.2
07:05 1017 30.03 847 25.01 14.8 58.6 53 5.4 41.8
07:10 1017 30.03 847 25.01 15.3 59.5 51 5.2 41.3
07:15 1017 30.03 847 25.01 16.1 60.9 49 5.4 41.7
07:20 1017 30.03 847 25.01 16 60.8 52 6.1 43.1
07:25 1017 30.03 847 25.01 15.9 60.7 52 6.1 42.9
07:30 1017 30.03 847 25.01 16.7 62 48 5.7 42.3
07:35 1017 30.03 847 25.01 17.2 63 48 6.3 43.3
07:40 1017 30.03 847 25.01 17 62.5 50 6.5 43.7
07:45 1018 30.06 847 25.01 17 62.6 49 6.2 43.1
07:50 1018 30.06 847 25.01 16.9 62.5 47 5.7 42.2
07:55 1018 30.06 847 25.01 16.5 61.7 48 5.4 41.8
08:00 1018 30.06 847 25.01 16.6 62 48 5.6 42
08:05 1017 30.03 847 25.01 17.7 63.8 46 6.2 43.1
08:10 1017 30.03 846 24.98 17.3 63.1 46 5.5 42
08:15 1017 30.03 846 24.98 17.9 64.2 42 4.9 40.8
08:20 1017 30.03 847 25.01 19.2 66.6 37 4.4 39.9
08:25 1017 30.03 847 25.01 19.5 67.2 37 4.4 40
08:30 1017 30.03 847 25.01 19.4 66.9 36 4.1 39.3
08:35 1017 30.03 847 25.01 19.8 67.6 35 4.1 39.4
08:40 1017 30.03 847 25.01 19.7 67.5 37 4.7 40.5
08:45 1017 30.03 847 25.01 19.5 67 38 4.9 40.9
08:50 1017 30.03 847 25.01 19.1 66.4 43 6.3 43.4
08:55 1017 30.03 847 25.01 18.6 65.6 42 5.7 42.2
09:00 1017 30.03 847 25.01 18.8 65.9 39 4.6 40.4
09:05 1017 30.03 847 25.01 19.6 67.2 36 4.4 39.9
09:10 1017 30.03 846 24.98 20 68.1 36 4.5 40.2
09:15 1017 30.03 846 24.98 19.8 67.6 36 4.6 40.3
09:20 1017 30.03 846 24.98 20.6 69.2 35 4.8 40.7
09:25 1017 30.03 846 24.98 21 69.8 34 4.6 40.3
09:30 1017 30.03 846 24.98 21.7 71 32 4.7 40.4
09:35 1017 30.03 846 24.98 22.6 72.7 32 5.1 41.1
09:40 1017 30.03 846 24.98 23 73.4 31 5.1 41.1
09:45 1017 30.03 846 24.98 21.6 70.9 33 5 41.1
09:50 1017 30.03 846 24.98 21.4 70.5 32 4.1 39.4
09:55 1017 30.03 846 24.98 21.9 71.4 31 4 39.2
10:00 1017 30.03 846 24.98 22.3 72.1 32 4.9 40.9
10:05 1017 30.03 846 24.98 22.4 72.4 31 4.5 40.1
10:10 1017 30.03 846 24.98 22.6 72.6 31 4.6 40.3
10:15 1017 30.03 846 24.98 23.4 74 29 4.6 40.3
10:20 1017 30.03 846 24.98 23.7 74.7 30 5.5 41.8
10:25 1017 30.03 846 24.98 23 73.4 30 4.7 40.5
10:30 1017 30.03 846 24.98 23.7 74.6 29 4.9 40.8
10:35 1017 30.03 846 24.98 24.2 75.5 28 4.8 40.6
10:40 1017 30.03 846 24.98 24.4 75.9 28 5.1 41.1
10:45 1016 30 846 24.98 24.5 76.2 28 5.1 41.2
10:50 1016 30 846 24.98 24.3 75.7 28 4.9 40.8
10:55 1016 30 846 24.98 24.1 75.4 27 4.4 40
11:00 1016 30 846 24.98 24.6 76.3 29 5.5 42
11:05 1016 30 845 24.95 24.7 76.4 28 5.4 41.8
11:10 1016 30 845 24.95 24.8 76.6 30 6.2 43.2
11:15 1016 30 845 24.95 24.7 76.4 30 6.1 42.9
11:20 1016 30 845 24.95 24.3 75.7 31 6.1 43
11:25 1016 30 845 24.95 24.6 76.2 30 6.1 43
11:30 1016 30 845 24.95 24.8 76.6 29 6 42.7
11:35 1016 30 845 24.95 24.4 75.8 31 6.2 43.1
11:40 1016 30 845 24.95 24.1 75.4 31 6.1 43
11:45 1016 30 845 24.95 24.3 75.7 28 5 40.9
11:50 1016 30 845 24.95 24.3 75.7 29 5.3 41.5
11:55 1016 30 845 24.95 24.5 76.1 29 5.5 41.8
12:00 1016 30 845 24.95 25.2 77.3 27 4.9 40.8
12:05 1016 30 845 24.95 24.9 76.8 28 5.5 41.8
12:10 1016 30 845 24.95 24.9 76.8 27 4.9 40.8
12:15 1016 30 845 24.95 25 77.1 26 4.5 40.1
12:20 1016 30 845 24.95 25.2 77.4 27 5.4 41.7
12:25 1016 30 845 24.95 25 77 28 5.6 42.2
12:30 1016 30 845 24.95 25.1 77.1 27 4.8 40.7
12:35 1016 30 845 24.95 25.2 77.4 27 4.9 40.9
12:40 1015 29.97 845 24.95 25.4 77.6 25 3.9 39.1
12:45 1015 29.97 845 24.95 25.6 78 25 4.4 39.9
12:50 1015 29.97 845 24.95 26.5 79.6 23 4.1 39.3
12:55 1015 29.97 844 24.92 26.9 80.5 22 3.6 38.5
13:00 1015 29.97 844 24.92 27 80.6 23 4.5 40.2
13:05 1015 29.97 844 24.92 26.6 79.8 30 8 46.3
13:10 1015 29.97 844 24.92 25.9 78.5 30 7 44.6
13:15 1015 29.97 844 24.92 25.8 78.4 31 7.5 45.5
13:20 1015 29.97 844 24.92 25.8 78.4 33 8.4 47.1
13:25 1015 29.97 844 24.92 24.4 75.9 33 7.3 45.1
13:30 1015 29.97 844 24.92 24.3 75.8 29 5.6 42.2
13:35 1015 29.97 844 24.92 24.6 76.3 31 6.4 43.5
13:40 1015 29.97 844 24.92 25.8 78.5 26 5 41
13:45 1015 29.97 844 24.92 26.9 80.4 23 4.1 39.4
13:50 1015 29.97 844 24.92 28 82.5 21 3.7 38.7
13:55 1015 29.97 844 24.92 28.7 83.6 23 6.1 42.9
14:00 1014 29.94 844 24.92 28.4 83.2 24 6.2 43.2
14:05 1014 29.94 844 24.92 27.7 81.8 23 4.9 40.9
14:10 1014 29.94 844 24.92 27.9 82.1 21 4 39.3
14:15 1014 29.94 844 24.92 28.1 82.7 22 4.6 40.3
14:20 1014 29.94 844 24.92 28.2 82.7 18 2.2 35.9
14:25 1014 29.94 843 24.89 28.1 82.6 18 2.1 35.8
14:30 1014 29.94 843 24.89 28.5 83.3 19 2.6 36.7
14:35 1014 29.94 843 24.89 27.8 82 18 1.6 34.9
14:40 1014 29.94 843 24.89 28.1 82.5 18 2 35.5
14:45 1014 29.94 843 24.89 28.9 84.1 18 2.8 37
14:50 1014 29.94 843 24.89 28.7 83.7 19 3.1 37.6
14:55 1014 29.94 843 24.89 28.3 82.9 20 3.8 38.9
15:00 1014 29.94 843 24.89 27.7 81.9 20 3.2 37.7
15:05 1014 29.94 843 24.89 28.2 82.8 19 3 37.4
15:10 1014 29.94 843 24.89 28.7 83.7 19 3.1 37.7
15:15 1014 29.94 843 24.89 28.5 83.2 18 2.1 35.7
15:20 1014 29.94 843 24.89 29 84.1 17 2.1 35.8
15:25 1014 29.94 843 24.89 29.3 84.7 19 3.3 38
15:30 1014 29.94 843 24.89 29.5 85.2 17 2.6 36.7
15:35 1014 29.94 843 24.89 29 84.1 17 1.7 35.1
15:40 1013 29.91 843 24.89 28.7 83.6 18 2.4 36.3
15:45 1013 29.91 843 24.89 28.9 83.9 19 3 37.5
15:50 1013 29.91 842 24.86 28.9 83.9 19 3 37.4
15:55 1013 29.91 842 24.86 28.3 82.9 19 2.9 37.2
16:00 1013 29.91 842 24.86 28.3 82.9 20 3.6 38.4
16:05 1013 29.91 842 24.86 28.4 83 20 3.2 37.8
16:10 1013 29.91 842 24.86 28.7 83.7 19 3.3 37.9
16:15 1013 29.91 842 24.86 28.4 83.1 18 2.3 36.2
16:20 1013 29.91 842 24.86 28.1 82.6 19 2.7 36.8
16:25 1013 29.91 842 24.86 28.5 83.3 17 1.7 35.1
16:30 1013 29.91 842 24.86 28.9 84 18 2.3 36.1
16:35 1013 29.91 842 24.86 28.9 83.9 18 2.3 36.1
16:40 1013 29.91 842 24.86 28.3 82.9 19 2.6 36.6
16:45 1013 29.91 842 24.86 28.4 83 17 1.3 34.4
16:50 1013 29.91 842 24.86 28.2 82.8 18 1.9 35.4
16:55 1013 29.91 842 24.86 28.2 82.7 18 1.5 34.8
17:00 1013 29.91 842 24.86 28.8 83.8 17 1.6 34.9
17:05 1013 29.91 842 24.86 28.4 83.1 18 2.3 36.1
17:10 1013 29.91 842 24.86 28.3 82.9 16 0.6 33.1
17:15 1013 29.91 842 24.86 28.7 83.6 16 0.4 32.8
17:20 1013 29.91 842 24.86 28.3 83 24 5.9 42.6
17:25 1013 29.91 842 24.86 27.6 81.7 29 8.2 46.7
17:30 1013 29.91 842 24.86 27.5 81.5 23 4.7 40.5
17:35 1012 29.88 842 24.86 27.8 82.1 23 5.3 41.5
17:40 1012 29.88 842 24.86 27.5 81.5 23 4.7 40.5
17:45 1012 29.88 842 24.86 27.6 81.6 24 5.5 41.8
17:50 1012 29.88 842 24.86 27.2 80.9 24 5.3 41.5
17:55 1012 29.88 842 24.86 27 80.6 28 7.2 45
18:00 1012 29.88 842 24.86 26.9 80.4 28 7.1 44.7
18:05 1012 29.88 842 24.86 26.8 80.3 29 7.7 45.8
18:10 1012 29.88 842 24.86 26.7 80.1 28 6.9 44.4
18:15 1012 29.88 842 24.86 26.5 79.8 27 6.5 43.7
18:20 1012 29.88 842 24.86 26.4 79.5 28 6.8 44.3
18:25 1012 29.88 842 24.86 26.2 79.2 30 7.8 46
18:30 1013 29.91 842 24.86 25.8 78.4 33 8.6 47.5
18:35 1013 29.91 842 24.86 25.4 77.8 33 8.3 47
18:40 1013 29.91 842 24.86 25.2 77.4 33 8.1 46.6
18:45 1013 29.91 842 24.86 25.1 77.1 30 6.4 43.5
18:50 1013 29.91 842 24.86 24.7 76.4 32 6.9 44.4
18:55 1013 29.91 842 24.86 24.5 76.2 29 5.6 42.1
19:00 1013 29.91 842 24.86 24.5 76.1 28 5.2 41.3
19:05 1013 29.91 842 24.86 24.3 75.8 28 5.1 41.2
19:10 1013 29.91 842 24.86 24.2 75.6 30 5.6 42.1
19:15 1013 29.91 842 24.86 24.1 75.5 28 4.9 40.8
19:20 1013 29.91 842 24.86 23.9 75 30 5.4 41.6
19:25 1013 29.91 842 24.86 23.6 74.5 30 5.1 41.1
19:30 1013 29.91 842 24.86 23.4 74.1 31 5.5 41.9
19:35 1013 29.91 842 24.86 23.1 73.6 32 5.7 42.3
19:40 1013 29.91 842 24.86 22.9 73.1 33 5.8 42.5
19:45 1013 29.91 843 24.89 22.8 73 32 5.5 42
19:50 1014 29.94 843 24.89 22.6 72.7 34 6.1 42.9
19:55 1014 29.94 843 24.89 22.4 72.2 35 6.5 43.7
20:00 1014 29.94 843 24.89 21.6 70.8 44 8.9 48
20:05 1014 29.94 843 24.89 20.8 69.4 45 8.5 47.3
20:10 1014 29.94 843 24.89 20.7 69.3 44 8.2 46.8
20:15 1014 29.94 843 24.89 20.6 69 43 7.8 46.1
20:20 1014 29.94 843 24.89 20.4 68.8 44 7.8 46.1
20:25 1014 29.94 843 24.89 20.2 68.4 44 7.6 45.7
20:30 1014 29.94 843 24.89 20.1 68.2 43 7.2 44.9
20:35 1014 29.94 844 24.92 20.1 68.3 42 6.9 44.4
20:40 1014 29.94 844 24.92 20.1 68.2 41 6.6 43.8
20:45 1014 29.94 844 24.92 20.3 68.5 41 6.7 44
20:50 1014 29.94 844 24.92 20.2 68.4 41 6.5 43.8
20:55 1015 29.97 844 24.92 20.2 68.3 40 6.2 43.1
21:00 1015 29.97 844 24.92 20.1 68.2 40 6.4 43.6
21:05 1015 29.97 844 24.92 19.9 67.9 42 6.8 44.2
21:10 1015 29.97 844 24.92 19.5 67.1 44 7 44.6
21:15 1015 29.97 844 24.92 19.1 66.3 44 6.7 44.1
21:20 1015 29.97 844 24.92 18.9 66.1 44 6.7 44
21:25 1015 29.97 844 24.92 19 66.3 43 6.5 43.6
21:30 1015 29.97 844 24.92 19.2 66.5 42 6.3 43.3
21:35 1015 29.97 844 24.92 19.2 66.5 44 6.6 44
21:40 1015 29.97 844 24.92 18.9 66 44 6.5 43.7
21:45 1015 29.97 844 24.92 18.7 65.7 46 6.9 44.4
21:50 1015 29.97 844 24.92 18.4 65 47 7.1 44.8
21:55 1015 29.97 844 24.92 18.1 64.5 49 7.2 44.9
22:00 1015 29.97 845 24.95 17.8 64.1 49 7 44.6
22:05 1016 30 845 24.95 17.9 64.2 49 7.1 44.8
22:10 1016 30 845 24.95 17.7 63.8 50 7.2 44.9
22:15 1016 30 845 24.95 17.6 63.7 49 7 44.6
22:20 1016 30 845 24.95 17.6 63.6 51 7.4 45.4
22:25 1016 30 845 24.95 17.4 63.3 51 7.1 44.8
22:30 1015 29.97 845 24.95 17.4 63.3 51 7.3 45.1
22:35 1015 29.97 845 24.95 17.3 63.1 52 7.6 45.6
22:40 1016 30 845 24.95 16.9 62.4 54 7.6 45.6
22:45 1015 29.97 845 24.95 16.7 62.1 53 7.3 45.1
22:50 1015 29.97 844 24.92 16.8 62.3 53 7.2 44.9
22:55 1015 29.97 844 24.92 16.9 62.3 52 7.2 44.9
23:00 1015 29.97 844 24.92 16.9 62.4 51 6.7 44.1
23:05 1015 29.97 844 24.92 17.1 62.9 51 7 44.6
23:10 1015 29.97 844 24.92 17 62.7 51 6.9 44.5
23:15 1015 29.97 844 24.92 16.9 62.5 53 7.3 45.1
23:20 1015 29.97 844 24.92 16.5 61.7 55 7.6 45.7
23:25 1015 29.97 844 24.92 16 60.8 57 7.6 45.7
23:30 1015 29.97 844 24.92 15.7 60.3 58 7.6 45.6
23:35 1015 29.97 844 24.92 15.6 60.1 58 7.4 45.4
23:40 1015 29.97 844 24.92 15.7 60.2 57 7.3 45.2
23:45 1015 29.97 844 24.92 15.7 60.3 58 7.5 45.6
23:50 1015 29.97 844 24.92 15.8 60.4 57 7.3 45.2
23:55 1015 29.97 844 24.92 15.9 60.7 57 7.4 45.4
24:00 1015 29.97 844 24.92 16.1 60.9 56 7.4 45.3